createdAt,value
2022-09-12T00:01:34.330Z,101690.47
2022-09-12T00:04:03.753Z,101684.78
2022-09-12T00:06:35.921Z,101681.81
2022-09-12T00:09:08.345Z,101683.45
2022-09-12T00:11:39.146Z,101679.91
2022-09-12T00:14:09.899Z,101683.44
2022-09-12T00:16:39.775Z,101685.04
2022-09-12T00:19:09.886Z,101685.04
2022-09-12T00:21:40.768Z,101676.64
2022-09-12T00:24:11.529Z,101676.09
2022-09-12T00:26:40.928Z,101680.71
2022-09-12T00:29:11.117Z,101677.45
2022-09-12T00:31:40.507Z,101670.41
2022-09-12T00:34:10.917Z,101675.28
2022-09-12T00:36:40.609Z,101677.97
2022-09-12T00:39:11.565Z,101672.03
2022-09-12T00:41:41.448Z,101666.59
2022-09-12T00:44:25.861Z,101663.61
2022-09-12T00:47:02.076Z,101666.61
2022-09-12T00:49:34.026Z,101660.37
2022-09-12T00:52:11.807Z,101656.84
2022-09-12T00:54:44.369Z,101655.22
2022-09-12T00:57:13.192Z,101657.92
2022-09-12T00:59:51.039Z,101650.34
2022-09-12T01:02:20.323Z,101648.18
2022-09-12T01:04:49.594Z,101646.83
2022-09-12T01:07:18.989Z,101642.77
2022-09-12T01:09:48.439Z,101640.33
2022-09-12T01:12:18.574Z,101635.16
2022-09-12T01:14:47.799Z,101636.25
2022-09-12T01:17:17.461Z,101633.01
2022-09-12T01:20:17.046Z,101638.68
2022-09-12T01:23:06.004Z,101633.52
2022-09-12T01:26:05.757Z,101636.50
2022-09-12T01:28:47.042Z,101634.62
2022-09-12T01:31:22.204Z,101631.09
2022-09-12T01:34:18.270Z,101627.57
2022-09-12T01:36:53.809Z,101632.42
2022-09-12T01:39:40.841Z,101635.13
2022-09-12T01:42:25.317Z,101628.36
2022-09-12T01:45:17.323Z,101635.36
2022-09-12T01:48:00.231Z,101623.44
2022-09-12T01:50:29.367Z,101624.00
2022-09-12T01:53:08.105Z,101612.61
2022-09-12T01:55:52.445Z,101611.25
2022-09-12T01:58:30.507Z,101609.91
2022-09-12T02:01:11.604Z,101611.25
2022-09-12T02:03:44.522Z,101602.31
2022-09-12T02:06:20.086Z,101603.94
2022-09-12T02:08:54.505Z,101600.94
2022-09-12T02:11:23.952Z,101602.83
2022-09-12T02:14:00.526Z,101603.64
2022-09-12T02:16:38.430Z,101602.84
2022-09-12T02:19:19.357Z,101599.87
2022-09-12T02:22:02.799Z,101596.06
2022-09-12T02:24:35.472Z,101593.62
2022-09-12T02:27:08.642Z,101584.44
2022-09-12T02:29:37.282Z,101589.85
2022-09-12T02:32:12.091Z,101584.97
2022-09-12T02:34:48.773Z,101581.73
2022-09-12T02:37:46.877Z,101570.64
2022-09-12T02:40:16.328Z,101578.48
2022-09-12T02:42:45.655Z,101573.09
2022-09-12T02:45:15.124Z,101577.14
2022-09-12T02:47:50.110Z,101577.41
2022-09-12T02:50:20.377Z,101575.78
2022-09-12T02:52:49.689Z,101573.09
2022-09-12T02:55:19.249Z,101574.16
2022-09-12T02:57:48.482Z,101566.61
2022-09-12T03:00:17.974Z,101569.30
2022-09-12T03:03:23.670Z,101567.14
2022-09-12T03:06:00.503Z,101569.84
2022-09-12T03:08:48.228Z,101561.46
2022-09-12T03:11:29.957Z,101561.73
2022-09-12T03:14:11.103Z,101561.98
2022-09-12T03:16:49.767Z,101562.81
2022-09-12T03:19:24.790Z,101558.23
2022-09-12T03:22:12.207Z,101553.88
2022-09-12T03:24:50.412Z,101554.97
2022-09-12T03:27:34.549Z,101556.86
2022-09-12T03:30:06.199Z,101556.34
2022-09-12T03:32:46.576Z,101546.86
2022-09-12T03:35:22.228Z,101544.96
2022-09-12T03:37:49.984Z,101546.61
2022-09-12T03:40:19.567Z,101541.20
2022-09-12T03:42:48.861Z,101536.03
2022-09-12T03:45:18.270Z,101539.80
2022-09-12T03:47:47.490Z,101534.13
2022-09-12T03:50:17.290Z,101537.10
2022-09-12T03:52:46.508Z,101532.21
2022-09-12T03:55:15.995Z,101528.16
2022-09-12T03:57:45.512Z,101533.02
2022-09-12T04:00:19.571Z,101528.95
2022-09-12T04:02:45.929Z,101528.95
2022-09-12T04:05:15.265Z,101535.73
2022-09-12T04:07:44.500Z,101534.64
2022-09-12T04:10:16.232Z,101528.13
2022-09-12T04:12:44.879Z,101531.64
2022-09-12T04:15:14.238Z,101528.67
2022-09-12T04:17:43.456Z,101523.27
2022-09-12T04:20:12.709Z,101519.46
2022-09-12T04:22:41.920Z,101523.80
2022-09-12T04:25:11.915Z,101522.72
2022-09-12T04:27:41.575Z,101517.31
2022-09-12T04:30:11.290Z,101518.66
2022-09-12T04:32:41.415Z,101514.58
2022-09-12T04:35:12.335Z,101513.78
2022-09-12T04:37:41.624Z,101511.63
2022-09-12T04:40:11.337Z,101514.87
2022-09-12T04:42:40.503Z,101514.34
2022-09-12T04:45:10.126Z,101515.69
2022-09-12T04:47:39.346Z,101515.69
2022-09-12T04:50:10.234Z,101511.36
2022-09-12T04:52:39.490Z,101512.16
2022-09-12T04:55:10.573Z,101522.45
2022-09-12T04:57:39.798Z,101518.39
2022-09-12T05:00:11.951Z,101515.13
2022-09-12T05:02:42.198Z,101513.23
2022-09-12T05:05:12.238Z,101519.73
2022-09-12T05:07:41.468Z,101516.75
2022-09-12T05:10:12.050Z,101518.38
2022-09-12T05:12:41.473Z,101515.92
2022-09-12T05:15:11.842Z,101520.82
2022-09-12T05:17:41.115Z,101517.55
2022-09-12T05:20:12.266Z,101513.23
2022-09-12T05:22:41.646Z,101514.58
2022-09-12T05:25:11.271Z,101518.64
2022-09-12T05:27:40.572Z,101518.89
2022-09-12T05:30:11.331Z,101521.60
2022-09-12T05:32:41.052Z,101519.70
2022-09-12T05:35:11.133Z,101521.85
2022-09-12T05:37:40.414Z,101515.61
2022-09-12T05:40:10.586Z,101522.65
2022-09-12T05:42:40.013Z,101525.60
2022-09-12T05:45:09.744Z,101526.95
2022-09-12T05:47:39.045Z,101524.52
2022-09-12T05:50:10.356Z,101523.17
2022-09-12T05:52:39.853Z,101523.98
2022-09-12T05:55:09.560Z,101522.63
2022-09-12T05:57:39.484Z,101521.30
2022-09-12T06:00:10.111Z,101521.02
2022-09-12T06:02:42.070Z,101517.80
2022-09-12T06:05:11.551Z,101514.83
2022-09-12T06:07:40.779Z,101521.03
2022-09-12T06:10:12.028Z,101522.67
2022-09-12T06:12:41.255Z,101525.39
2022-09-12T06:15:11.921Z,101521.05
2022-09-12T06:17:41.215Z,101522.42
2022-09-12T06:20:10.928Z,101519.17
2022-09-12T06:22:40.813Z,101524.65
2022-09-12T06:25:10.203Z,101522.26
2022-09-12T06:27:39.414Z,101523.61
2022-09-12T06:30:09.238Z,101522.80
2022-09-12T06:32:38.470Z,101530.91
2022-09-12T06:35:08.348Z,101528.22
2022-09-12T06:37:37.565Z,101527.94
2022-09-12T06:40:08.630Z,101527.12
2022-09-12T06:42:37.852Z,101524.42
2022-09-12T06:45:07.743Z,101527.94
2022-09-12T06:47:37.393Z,101523.61
2022-09-12T06:50:07.617Z,101528.20
2022-09-12T06:52:36.865Z,101523.31
2022-09-12T06:55:06.526Z,101524.95
2022-09-12T06:57:37.523Z,101520.85
2022-09-12T07:00:07.839Z,101524.92
2022-09-12T07:02:37.452Z,101523.55
2022-09-12T07:05:08.367Z,101513.79
2022-09-12T07:07:38.139Z,101517.30
2022-09-12T07:10:08.209Z,101519.47
2022-09-12T07:12:37.612Z,101515.67
2022-09-12T07:15:07.268Z,101517.53
2022-09-12T07:17:36.712Z,101515.05
2022-09-12T07:20:08.108Z,101514.45
2022-09-12T07:22:37.851Z,101516.61
2022-09-12T07:25:09.281Z,101514.39
2022-09-12T07:27:38.536Z,101513.53
2022-09-12T07:30:08.509Z,101514.27
2022-09-12T07:32:37.750Z,101514.43
2022-09-12T07:35:07.625Z,101515.11
2022-09-12T07:37:36.899Z,101515.91
2022-09-12T07:40:06.522Z,101519.50
2022-09-12T07:42:35.841Z,101524.13
2022-09-12T07:45:05.486Z,101522.59
2022-09-12T07:47:35.215Z,101518.04
2022-09-12T07:50:05.805Z,101524.23
2022-09-12T07:52:35.320Z,101526.86
2022-09-12T07:55:05.082Z,101531.16
2022-09-12T07:57:34.375Z,101538.37
2022-09-12T08:00:03.895Z,101532.00
2022-09-12T08:02:34.890Z,101529.09
2022-09-12T08:05:04.187Z,101535.68
2022-09-12T08:07:34.155Z,101538.23
2022-09-12T08:10:03.521Z,101526.45
2022-09-12T08:12:34.725Z,101526.53
2022-09-12T08:15:04.003Z,101528.08
2022-09-12T08:17:33.454Z,101537.02
2022-09-12T08:20:02.847Z,101538.23
2022-09-12T08:22:32.967Z,101535.13
2022-09-12T08:25:02.320Z,101529.95
2022-09-12T08:27:31.580Z,101530.36
2022-09-12T08:30:00.913Z,101537.65
2022-09-12T08:32:30.315Z,101531.56
2022-09-12T08:34:59.592Z,101526.31
2022-09-12T08:37:33.363Z,101531.49
2022-09-12T08:40:02.842Z,101529.81
2022-09-12T08:42:38.260Z,101529.41
2022-09-12T08:45:10.656Z,101534.32
2022-09-12T08:47:42.669Z,101532.36
2022-09-12T08:50:15.823Z,101521.63
2022-09-12T08:53:07.817Z,101525.61
2022-09-12T08:55:39.674Z,101529.16
2022-09-12T08:58:17.510Z,101526.55
2022-09-12T09:01:05.001Z,101524.84
2022-09-12T09:03:44.574Z,101524.79
2022-09-12T09:06:35.019Z,101520.03
2022-09-12T09:09:26.091Z,101518.66
2022-09-12T09:11:58.484Z,101515.89
2022-09-12T09:14:49.142Z,101513.05
2022-09-12T09:17:48.281Z,101506.62
2022-09-12T09:20:38.373Z,101500.17
2022-09-12T09:23:15.311Z,101504.16
2022-09-12T09:26:02.530Z,101500.50
2022-09-12T09:28:51.054Z,101505.41
2022-09-12T09:31:23.397Z,101501.87
2022-09-12T09:33:57.586Z,101501.95
2022-09-12T09:36:32.980Z,101497.92
2022-09-12T09:39:14.647Z,101498.63
2022-09-12T09:41:56.129Z,101499.73
2022-09-12T09:44:25.409Z,101500.28
2022-09-12T09:46:56.893Z,101496.38
2022-09-12T09:49:31.394Z,101495.31
2022-09-12T09:52:01.215Z,101494.45
2022-09-12T09:54:45.752Z,101485.08
2022-09-12T09:57:39.505Z,101493.08
2022-09-12T10:00:27.630Z,101488.21
2022-09-12T10:03:14.193Z,101487.86
2022-09-12T10:05:52.031Z,101479.08
2022-09-12T10:08:23.952Z,101473.38
2022-09-12T10:11:01.998Z,101478.77
2022-09-12T10:13:37.575Z,101479.02
2022-09-12T10:16:10.208Z,101437.45
2022-09-12T10:18:42.501Z,101469.72
2022-09-12T10:21:20.678Z,101466.28
2022-09-12T10:23:52.747Z,101459.98
2022-09-12T10:26:22.147Z,101456.70
2022-09-12T10:28:54.020Z,101444.56
2022-09-12T10:31:31.834Z,101442.57
2022-09-12T10:34:01.574Z,101443.47
2022-09-12T10:36:39.034Z,101442.66
2022-09-12T10:39:10.465Z,101428.61
2022-09-12T10:41:40.903Z,101426.36
2022-09-12T10:44:16.084Z,101429.16
2022-09-12T10:46:45.344Z,101417.96
2022-09-12T10:49:23.690Z,101416.44
2022-09-12T10:51:55.112Z,101415.98
2022-09-12T10:54:27.419Z,101416.46
2022-09-12T10:57:11.818Z,101411.90
2022-09-12T10:59:44.341Z,101419.91
2022-09-12T11:02:29.420Z,101416.22
2022-09-12T11:05:10.821Z,101416.22
2022-09-12T11:07:43.340Z,101412.51
2022-09-12T11:10:15.735Z,101412.30
2022-09-12T11:13:04.811Z,101412.30
2022-09-12T11:15:46.814Z,101415.41
2022-09-12T11:18:25.619Z,101421.50
2022-09-12T11:21:26.997Z,101424.52
2022-09-12T11:24:08.251Z,101417.11
2022-09-12T11:26:51.978Z,101406.91
2022-09-12T11:29:24.480Z,101412.23
2022-09-12T11:32:15.936Z,101413.17
2022-09-12T11:35:06.282Z,101413.70
2022-09-12T11:38:01.012Z,101412.70
2022-09-12T11:40:36.262Z,101406.42
2022-09-12T11:43:24.931Z,101413.80
2022-09-12T11:45:54.678Z,101406.16
2022-09-12T11:48:45.255Z,101399.95
2022-09-12T11:51:20.511Z,101395.78
2022-09-12T11:53:56.332Z,101404.70
2022-09-12T11:56:29.589Z,101404.14
2022-09-12T11:59:04.870Z,101404.48
2022-09-12T12:01:41.978Z,101396.59
2022-09-12T12:04:11.324Z,101395.62
2022-09-12T12:07:04.528Z,101392.53
2022-09-12T12:09:34.503Z,101386.16
2022-09-12T12:12:06.820Z,101389.41
2022-09-12T12:14:44.291Z,101384.66
2022-09-12T12:17:22.253Z,101380.97
2022-09-12T12:20:08.616Z,101379.47
2022-09-12T12:22:37.187Z,101378.19
2022-09-12T12:25:21.287Z,101374.70
2022-09-12T12:27:51.549Z,101366.80
2022-09-12T12:30:33.419Z,101358.53
2022-09-12T12:33:14.653Z,101356.92
2022-09-12T12:35:48.798Z,101361.75
2022-09-12T12:38:36.126Z,101359.39
2022-09-12T12:41:24.208Z,101362.96
2022-09-12T12:43:56.425Z,101358.59
2022-09-12T12:46:27.974Z,101349.95
2022-09-12T12:49:12.098Z,101346.59
2022-09-12T12:51:56.662Z,101342.37
2022-09-12T12:54:43.832Z,101344.45
2022-09-12T12:57:33.817Z,101342.05
2022-09-12T13:00:09.814Z,101327.91
2022-09-12T13:02:41.279Z,101328.59
2022-09-12T13:05:25.749Z,101321.43
2022-09-12T13:07:57.757Z,101318.68
2022-09-12T13:10:28.832Z,101328.58
2022-09-12T13:13:01.373Z,101326.66
2022-09-12T13:15:40.318Z,101323.58
2022-09-12T13:18:15.239Z,101322.06
2022-09-12T13:21:10.032Z,101313.41
2022-09-12T13:23:39.833Z,101310.52
2022-09-12T13:26:15.448Z,101304.99
2022-09-12T13:28:44.792Z,101300.45
2022-09-12T13:31:25.410Z,101296.69
2022-09-12T13:33:59.222Z,101293.70
2022-09-12T13:36:55.221Z,101295.14
2022-09-12T13:39:53.793Z,101295.27
2022-09-12T13:42:38.093Z,101300.86
2022-09-12T13:45:12.997Z,101291.49
2022-09-12T13:47:47.067Z,101296.34
2022-09-12T13:50:19.456Z,101296.06
2022-09-12T13:52:51.938Z,101294.34
2022-09-12T13:55:35.247Z,101282.80
2022-09-12T13:58:07.078Z,101273.61
2022-09-12T14:00:37.283Z,101262.74
2022-09-12T14:03:39.642Z,101255.62
2022-09-12T14:06:09.065Z,101258.31
2022-09-12T14:08:41.606Z,101251.64
2022-09-12T14:11:12.510Z,101250.75
2022-09-12T14:13:41.912Z,101239.47
2022-09-12T14:16:12.339Z,101231.25
2022-09-12T14:18:43.889Z,101235.70
2022-09-12T14:21:15.820Z,101241.86
2022-09-12T14:23:48.669Z,101239.02
2022-09-12T14:26:18.470Z,101236.50
2022-09-12T14:28:48.449Z,101232.91
2022-09-12T14:31:32.210Z,101233.42
2022-09-12T14:34:13.481Z,101222.64
2022-09-12T14:36:50.836Z,101235.16
2022-09-12T14:39:38.223Z,101226.54
2022-09-12T14:42:18.939Z,101224.90
2022-09-12T14:45:01.881Z,101230.37
2022-09-12T14:47:40.401Z,101224.56
2022-09-12T14:50:21.884Z,101222.43
2022-09-12T14:53:06.243Z,101223.06
2022-09-12T14:55:38.027Z,101225.59
2022-09-12T14:58:24.009Z,101217.89
2022-09-12T15:00:58.209Z,101221.72
2022-09-12T15:03:35.657Z,101217.05
2022-09-12T15:06:08.166Z,101217.78
2022-09-12T15:08:37.575Z,101218.58
2022-09-12T15:11:08.040Z,101215.41
2022-09-12T15:13:41.894Z,101213.41
2022-09-12T15:16:12.708Z,101211.48
2022-09-12T15:18:41.941Z,101198.16
2022-09-12T15:21:16.985Z,101198.16
2022-09-12T15:23:51.180Z,101198.22
2022-09-12T15:26:23.306Z,101198.17
2022-09-12T15:28:52.857Z,101204.27
2022-09-12T15:31:26.993Z,101200.08
2022-09-12T15:33:57.904Z,101202.57
2022-09-12T15:36:28.766Z,101197.62
2022-09-12T15:38:58.047Z,101198.06
2022-09-12T15:41:36.458Z,101194.98
2022-09-12T15:44:08.144Z,101195.53
2022-09-12T15:46:37.449Z,101193.72
2022-09-12T15:49:09.650Z,101186.47
2022-09-12T15:51:38.148Z,101187.34
2022-09-12T15:54:07.310Z,101183.78
2022-09-12T15:56:36.510Z,101184.98
2022-09-12T15:59:05.911Z,101188.22
2022-09-12T16:01:35.156Z,101168.81
2022-09-12T16:04:04.678Z,101164.03
2022-09-12T16:06:37.204Z,101163.55
2022-09-12T16:09:07.053Z,101165.34
2022-09-12T16:11:36.331Z,101162.39
2022-09-12T16:14:06.279Z,101164.00
2022-09-12T16:16:35.733Z,101157.86
2022-09-12T16:19:05.044Z,101149.98
2022-09-12T16:21:34.247Z,101146.53
2022-09-12T16:24:04.037Z,101141.03
2022-09-12T16:26:33.655Z,101140.11
2022-09-12T16:29:03.317Z,101140.59
2022-09-12T16:31:32.738Z,101136.47
2022-09-12T16:34:02.361Z,101133.38
2022-09-12T16:36:31.563Z,101129.13
2022-09-12T16:39:01.126Z,101124.34
2022-09-12T16:41:30.509Z,101112.88
2022-09-12T16:43:59.783Z,101104.63
2022-09-12T16:46:29.791Z,101100.64
2022-09-12T16:48:59.948Z,101095.66
2022-09-12T16:51:35.968Z,101087.33
2022-09-12T16:54:05.306Z,101080.11
2022-09-12T16:56:34.520Z,101071.88
2022-09-12T16:59:05.500Z,101076.22
2022-09-12T17:01:36.619Z,101074.48
2022-09-12T17:04:06.755Z,101082.59
2022-09-12T17:06:40.742Z,101075.28
2022-09-12T17:09:13.405Z,101078.69
2022-09-12T17:11:42.675Z,101079.73
2022-09-12T17:14:15.056Z,101088.49
2022-09-12T17:16:51.685Z,101092.13
2022-09-12T17:19:33.212Z,101089.96
2022-09-12T17:22:02.413Z,101091.00
2022-09-12T17:24:33.032Z,101075.27
2022-09-12T17:27:02.327Z,101072.47
2022-09-12T17:29:31.641Z,101069.55
2022-09-12T17:32:00.859Z,101069.77
2022-09-12T17:34:30.414Z,101072.06
2022-09-12T17:36:59.700Z,101068.75
2022-09-12T17:39:29.232Z,101071.08
2022-09-12T17:42:00.132Z,101068.57
2022-09-12T17:44:30.424Z,101076.94
2022-09-12T17:46:59.727Z,101075.41
2022-09-12T17:49:29.096Z,101059.33
2022-09-12T17:51:58.301Z,101069.84
2022-09-12T17:54:27.691Z,101078.70
2022-09-12T17:56:56.978Z,101072.21
2022-09-12T17:59:27.731Z,101086.73
2022-09-12T18:02:15.601Z,101089.23
2022-09-12T18:04:50.758Z,101088.47
2022-09-12T18:07:22.337Z,101097.40
2022-09-12T18:09:56.561Z,101090.42
2022-09-12T18:12:27.900Z,101093.86
2022-09-12T18:14:57.361Z,101095.35
2022-09-12T18:17:28.538Z,101095.74
2022-09-12T18:19:57.957Z,101100.83
2022-09-12T18:22:27.295Z,101093.08
2022-09-12T18:24:56.719Z,101090.27
2022-09-12T18:27:32.408Z,101096.15
2022-09-12T18:30:20.623Z,101100.39
2022-09-12T18:32:33.119Z,101087.04
2022-09-12T18:35:04.361Z,101086.62
2022-09-12T18:37:36.545Z,101084.59
2022-09-12T18:40:09.437Z,101084.98
2022-09-12T18:42:40.336Z,101075.66
2022-09-12T18:45:10.270Z,101076.93
2022-09-12T18:47:42.331Z,101067.20
2022-09-12T18:50:11.842Z,101065.97
2022-09-12T18:52:41.195Z,101062.45
2022-09-12T18:55:10.988Z,101060.89
2022-09-12T18:57:42.099Z,101061.64
2022-09-12T19:00:13.424Z,101054.16
2022-09-12T19:02:42.771Z,101043.33
2022-09-12T19:05:12.828Z,101048.83
2022-09-12T19:07:42.062Z,101049.08
2022-09-12T19:10:12.068Z,101045.97
2022-09-12T19:12:41.318Z,101045.36
2022-09-12T19:15:10.971Z,101035.81
2022-09-12T19:17:40.179Z,101043.11
2022-09-12T19:20:09.852Z,101045.81
2022-09-12T19:22:39.218Z,101053.57
2022-09-12T19:25:09.405Z,101059.02
2022-09-12T19:27:38.675Z,101055.73
2022-09-12T19:30:08.682Z,101060.63
2022-09-12T19:32:37.896Z,101055.19
2022-09-12T19:35:07.659Z,101048.84
2022-09-12T19:37:36.935Z,101046.94
2022-09-12T19:40:07.877Z,101045.13
2022-09-12T19:42:37.179Z,101048.34
2022-09-12T19:45:07.199Z,101051.63
2022-09-12T19:47:36.577Z,101061.25
2022-09-12T19:50:06.727Z,101066.19
2022-09-12T19:52:36.242Z,101063.82
2022-09-12T19:55:05.710Z,101061.70
2022-09-12T19:57:35.123Z,101053.53
2022-09-12T20:00:06.916Z,101051.88
2022-09-12T20:02:36.412Z,101047.97
2022-09-12T20:05:06.299Z,101051.77
2022-09-12T20:07:35.684Z,101050.45
2022-09-12T20:10:05.660Z,101050.20
2022-09-12T20:12:34.975Z,101041.27
2022-09-12T20:15:05.019Z,101033.37
2022-09-12T20:17:34.606Z,101025.45
2022-09-12T20:20:04.070Z,101031.34
2022-09-12T20:22:37.964Z,101036.48
2022-09-12T20:25:04.904Z,101038.77
2022-09-12T20:27:34.312Z,101035.03
2022-09-12T20:30:03.749Z,101035.92
2022-09-12T20:32:33.208Z,101033.69
2022-09-12T20:35:02.764Z,101032.99
2022-09-12T20:37:32.084Z,101034.91
2022-09-12T20:40:01.368Z,101034.28
2022-09-12T20:42:31.231Z,101029.36
2022-09-12T20:45:00.489Z,101040.49
2022-09-12T20:47:31.419Z,101036.58
2022-09-12T20:50:00.823Z,101028.42
2022-09-12T20:52:30.200Z,101031.95
2022-09-12T20:54:59.465Z,101039.02
2022-09-12T20:57:28.870Z,101037.53
2022-09-12T20:59:58.108Z,101045.34
2022-09-12T21:02:29.281Z,101058.73
2022-09-12T21:04:59.340Z,101053.27
2022-09-12T21:07:28.796Z,101056.41
2022-09-12T21:09:58.816Z,101059.37
2022-09-12T21:12:31.496Z,101047.69
2022-09-12T21:15:00.902Z,101042.19
2022-09-12T21:17:30.239Z,101044.53
2022-09-12T21:19:59.643Z,101047.30
2022-09-12T21:22:29.118Z,101049.53
2022-09-12T21:24:58.447Z,101045.17
2022-09-12T21:27:27.930Z,101043.84
2022-09-12T21:29:57.483Z,101048.27
2022-09-12T21:32:28.746Z,101007.59
2022-09-12T21:34:58.112Z,101045.63
2022-09-12T21:37:27.728Z,101043.08
2022-09-12T21:40:01.447Z,101046.56
2022-09-12T21:42:31.760Z,101037.48
2022-09-12T21:45:01.041Z,101049.06
2022-09-12T21:47:30.334Z,101050.34
2022-09-12T21:49:59.748Z,101047.58
2022-09-12T21:52:29.065Z,101049.11
2022-09-12T21:54:58.385Z,101058.89
2022-09-12T21:57:27.706Z,101062.38
2022-09-12T21:59:57.987Z,101075.67
2022-09-12T22:02:29.384Z,101060.69
2022-09-12T22:04:59.184Z,101070.98
2022-09-12T22:07:29.321Z,101061.25
2022-09-12T22:09:58.668Z,101059.21
2022-09-12T22:12:30.902Z,101061.02
2022-09-12T22:15:08.929Z,101059.66
2022-09-12T22:17:31.201Z,101052.36
2022-09-12T22:20:00.437Z,101044.30
2022-09-12T22:22:47.696Z,101041.87
2022-09-12T22:25:17.031Z,101040.51
2022-09-12T22:27:46.455Z,101029.88
2022-09-12T22:30:18.989Z,101024.96
2022-09-12T22:32:49.874Z,101023.36
2022-09-12T22:35:20.928Z,101020.95
2022-09-12T22:37:50.251Z,101019.91
2022-09-12T22:40:19.872Z,101018.83
2022-09-12T22:42:50.946Z,101018.42
2022-09-12T22:45:20.263Z,101008.09
2022-09-12T22:47:49.717Z,101008.38
2022-09-12T22:50:18.989Z,101009.25
2022-09-12T22:52:48.355Z,101001.88
2022-09-12T22:55:17.988Z,101005.97
2022-09-12T22:57:49.212Z,101003.29
2022-09-12T23:00:19.513Z,100994.08
2022-09-12T23:02:48.864Z,100993.91
2022-09-12T23:05:18.418Z,101000.44
2022-09-12T23:07:47.646Z,101002.92
2022-09-12T23:10:17.056Z,100991.03
2022-09-12T23:12:46.266Z,100987.27
2022-09-12T23:15:15.568Z,100987.27
2022-09-12T23:17:44.887Z,100981.25
2022-09-12T23:20:14.120Z,100984.30
2022-09-12T23:22:43.525Z,100986.70
2022-09-12T23:25:12.902Z,100977.69
2022-09-12T23:27:43.447Z,100978.97
2022-09-12T23:30:13.102Z,100976.81
2022-09-12T23:32:42.362Z,100969.69
2022-09-12T23:35:12.718Z,100971.25
2022-09-12T23:37:42.134Z,100971.25
2022-09-12T23:40:12.217Z,100970.88
2022-09-12T23:42:41.562Z,100972.53
2022-09-12T23:45:11.301Z,100972.80
2022-09-12T23:47:40.648Z,100976.89
2022-09-12T23:50:10.484Z,100974.45
2022-09-12T23:52:39.854Z,100970.37
2022-09-12T23:55:11.068Z,100971.92
2022-09-12T23:57:40.376Z,100972.24
